sensor_id;sensor_type;location;lat;lon;timestamp;temperature;humidity
29093;DHT22;16167;48.768;14.984;2024-01-30T00:00:57;-1.70;99.90
29093;DHT22;16167;48.768;14.984;2024-01-30T00:03:25;-1.70;99.90
29093;DHT22;16167;48.768;14.984;2024-01-30T00:05:53;-1.70;99.90
29093;DHT22;16167;48.768;14.984;2024-01-30T00:08:25;-1.70;99.90
29093;DHT22;16167;48.768;14.984;2024-01-30T00:10:53;-1.60;99.90
29093;DHT22;16167;48.768;14.984;2024-01-30T00:13:22;-1.60;99.90
29093;DHT22;16167;48.768;14.984;2024-01-30T00:15:50;-1.60;99.90
29093;DHT22;16167;48.768;14.984;2024-01-30T00:18:18;-1.60;99.90
29093;DHT22;16167;48.768;14.984;2024-01-30T00:20:46;-1.60;99.90
29093;DHT22;16167;48.768;14.984;2024-01-30T00:23:14;-1.50;99.90
29093;DHT22;16167;48.768;14.984;2024-01-30T00:25:42;-1.50;99.90
29093;DHT22;16167;48.768;14.984;2024-01-30T00:28:11;-1.40;99.90
29093;DHT22;16167;48.768;14.984;2024-01-30T00:30:40;-1.30;99.90
29093;DHT22;16167;48.768;14.984;2024-01-30T00:33:09;-1.30;99.90
29093;DHT22;16167;48.768;14.984;2024-01-30T00:35:37;-1.30;99.90
29093;DHT22;16167;48.768;14.984;2024-01-30T00:38:05;-1.20;99.90
29093;DHT22;16167;48.768;14.984;2024-01-30T00:40:34;-1.20;99.90
29093;DHT22;16167;48.768;14.984;2024-01-30T00:43:02;-1.20;99.90
29093;DHT22;16167;48.768;14.984;2024-01-30T00:45:30;-1.10;99.90
29093;DHT22;16167;48.768;14.984;2024-01-30T00:48:00;-1.10;99.90
29093;DHT22;16167;48.768;14.984;2024-01-30T00:50:28;-1.10;99.90
29093;DHT22;16167;48.768;14.984;2024-01-30T00:52:56;-1.10;99.90
29093;DHT22;16167;48.768;14.984;2024-01-30T00:55:24;-1.00;99.90
29093;DHT22;16167;48.768;14.984;2024-01-30T00:57:52;-1.00;99.90
29093;DHT22;16167;48.768;14.984;2024-01-30T01:00:20;-1.00;99.90
29093;DHT22;16167;48.768;14.984;2024-01-30T01:02:48;-1.00;99.90
29093;DHT22;16167;48.768;14.984;2024-01-30T01:05:18;-1.00;99.90
29093;DHT22;16167;48.768;14.984;2024-01-30T01:07:46;-1.00;99.90
29093;DHT22;16167;48.768;14.984;2024-01-30T01:10:15;-1.00;99.90
29093;DHT22;16167;48.768;14.984;2024-01-30T01:12:44;-1.00;99.90
29093;DHT22;16167;48.768;14.984;2024-01-30T01:15:12;-1.00;99.90
29093;DHT22;16167;48.768;14.984;2024-01-30T01:17:40;-1.00;99.90
29093;DHT22;16167;48.768;14.984;2024-01-30T01:20:08;-0.90;99.90
29093;DHT22;16167;48.768;14.984;2024-01-30T01:22:38;-0.90;99.90
29093;DHT22;16167;48.768;14.984;2024-01-30T01:25:06;-0.90;99.90
29093;DHT22;16167;48.768;14.984;2024-01-30T01:27:35;-0.90;99.90
29093;DHT22;16167;48.768;14.984;2024-01-30T01:30:08;-0.90;99.90
29093;DHT22;16167;48.768;14.984;2024-01-30T01:32:36;-0.90;99.90
29093;DHT22;16167;48.768;14.984;2024-01-30T01:35:05;-0.90;99.90
29093;DHT22;16167;48.768;14.984;2024-01-30T01:37:33;-0.90;99.90
29093;DHT22;16167;48.768;14.984;2024-01-30T01:40:03;-0.90;99.90
29093;DHT22;16167;48.768;14.984;2024-01-30T01:42:33;-0.90;99.90
29093;DHT22;16167;48.768;14.984;2024-01-30T01:45:02;-0.90;99.90
29093;DHT22;16167;48.768;14.984;2024-01-30T01:47:30;-0.80;99.90
29093;DHT22;16167;48.768;14.984;2024-01-30T01:49:58;-0.80;99.90
29093;DHT22;16167;48.768;14.984;2024-01-30T01:52:26;-0.80;99.90
29093;DHT22;16167;48.768;14.984;2024-01-30T01:54:55;-0.80;99.90
29093;DHT22;16167;48.768;14.984;2024-01-30T01:57:24;-0.80;99.90
29093;DHT22;16167;48.768;14.984;2024-01-30T01:59:52;-0.70;99.90
29093;DHT22;16167;48.768;14.984;2024-01-30T02:02:20;-0.70;99.90
29093;DHT22;16167;48.768;14.984;2024-01-30T02:04:50;-0.70;99.90
29093;DHT22;16167;48.768;14.984;2024-01-30T02:07:19;-0.70;99.90
29093;DHT22;16167;48.768;14.984;2024-01-30T02:09:49;-0.70;99.90
29093;DHT22;16167;48.768;14.984;2024-01-30T02:12:17;-0.70;99.90
29093;DHT22;16167;48.768;14.984;2024-01-30T02:14:47;-0.70;99.90
29093;DHT22;16167;48.768;14.984;2024-01-30T02:17:16;-0.70;99.90
29093;DHT22;16167;48.768;14.984;2024-01-30T02:19:45;-0.70;99.90
29093;DHT22;16167;48.768;14.984;2024-01-30T02:22:15;-0.70;99.90
29093;DHT22;16167;48.768;14.984;2024-01-30T02:24:43;-0.70;99.90
29093;DHT22;16167;48.768;14.984;2024-01-30T02:27:11;-0.70;99.90
29093;DHT22;16167;48.768;14.984;2024-01-30T02:29:39;-0.70;99.90
29093;DHT22;16167;48.768;14.984;2024-01-30T02:32:07;-0.70;99.90
29093;DHT22;16167;48.768;14.984;2024-01-30T02:34:35;-0.70;99.90
29093;DHT22;16167;48.768;14.984;2024-01-30T02:37:03;-0.70;99.90
29093;DHT22;16167;48.768;14.984;2024-01-30T02:39:33;-0.70;99.90
29093;DHT22;16167;48.768;14.984;2024-01-30T02:42:01;-0.70;99.90
29093;DHT22;16167;48.768;14.984;2024-01-30T02:44:29;-0.70;99.90
29093;DHT22;16167;48.768;14.984;2024-01-30T02:46:57;-0.70;99.90
29093;DHT22;16167;48.768;14.984;2024-01-30T02:49:25;-0.70;99.90
29093;DHT22;16167;48.768;14.984;2024-01-30T02:51:53;-0.70;99.90
29093;DHT22;16167;48.768;14.984;2024-01-30T02:54:21;-0.70;99.90
29093;DHT22;16167;48.768;14.984;2024-01-30T02:56:51;-0.70;99.90
29093;DHT22;16167;48.768;14.984;2024-01-30T02:59:19;-0.70;99.90
29093;DHT22;16167;48.768;14.984;2024-01-30T03:01:47;-0.70;99.90
29093;DHT22;16167;48.768;14.984;2024-01-30T03:04:15;-0.70;99.90
29093;DHT22;16167;48.768;14.984;2024-01-30T03:06:47;-0.70;99.90
29093;DHT22;16167;48.768;14.984;2024-01-30T03:09:15;-0.70;99.90
29093;DHT22;16167;48.768;14.984;2024-01-30T03:11:43;-0.70;99.90
29093;DHT22;16167;48.768;14.984;2024-01-30T03:14:13;-0.70;99.90
29093;DHT22;16167;48.768;14.984;2024-01-30T03:16:41;-0.70;99.90
29093;DHT22;16167;48.768;14.984;2024-01-30T03:19:09;-0.70;99.90
29093;DHT22;16167;48.768;14.984;2024-01-30T03:21:37;-0.70;99.90
29093;DHT22;16167;48.768;14.984;2024-01-30T03:24:05;-0.70;99.90
29093;DHT22;16167;48.768;14.984;2024-01-30T03:26:33;-0.60;99.90
29093;DHT22;16167;48.768;14.984;2024-01-30T03:29:01;-0.60;99.90
29093;DHT22;16167;48.768;14.984;2024-01-30T03:31:30;-0.70;99.90
29093;DHT22;16167;48.768;14.984;2024-01-30T03:33:59;-0.60;99.90
29093;DHT22;16167;48.768;14.984;2024-01-30T03:36:27;-0.60;99.90
29093;DHT22;16167;48.768;14.984;2024-01-30T03:38:55;-0.60;99.90
29093;DHT22;16167;48.768;14.984;2024-01-30T03:41:22;-0.60;99.90
29093;DHT22;16167;48.768;14.984;2024-01-30T03:43:50;-0.60;99.90
29093;DHT22;16167;48.768;14.984;2024-01-30T03:46:18;-0.60;99.90
29093;DHT22;16167;48.768;14.984;2024-01-30T03:48:48;-0.60;99.90
29093;DHT22;16167;48.768;14.984;2024-01-30T03:51:16;-0.60;99.90
29093;DHT22;16167;48.768;14.984;2024-01-30T03:53:44;-0.60;99.90
29093;DHT22;16167;48.768;14.984;2024-01-30T03:56:12;-0.60;99.90
29093;DHT22;16167;48.768;14.984;2024-01-30T03:58:41;-0.60;99.90
29093;DHT22;16167;48.768;14.984;2024-01-30T04:01:12;-0.60;99.90
29093;DHT22;16167;48.768;14.984;2024-01-30T04:03:41;-0.60;99.90
29093;DHT22;16167;48.768;14.984;2024-01-30T04:06:12;-0.60;99.90
29093;DHT22;16167;48.768;14.984;2024-01-30T04:08:40;-0.60;99.90
29093;DHT22;16167;48.768;14.984;2024-01-30T04:11:08;-0.60;99.90
29093;DHT22;16167;48.768;14.984;2024-01-30T04:13:36;-0.60;99.90
29093;DHT22;16167;48.768;14.984;2024-01-30T04:16:04;-0.60;99.90
29093;DHT22;16167;48.768;14.984;2024-01-30T04:18:33;-0.60;99.90
29093;DHT22;16167;48.768;14.984;2024-01-30T04:21:01;-0.60;99.90
29093;DHT22;16167;48.768;14.984;2024-01-30T04:23:30;-0.50;99.90
29093;DHT22;16167;48.768;14.984;2024-01-30T04:25:58;-0.50;99.90
29093;DHT22;16167;48.768;14.984;2024-01-30T04:28:26;-0.50;99.90
29093;DHT22;16167;48.768;14.984;2024-01-30T04:30:54;-0.50;99.90
29093;DHT22;16167;48.768;14.984;2024-01-30T04:33:22;-0.50;99.90
29093;DHT22;16167;48.768;14.984;2024-01-30T04:35:50;-0.50;99.90
29093;DHT22;16167;48.768;14.984;2024-01-30T04:38:18;-0.50;99.90
29093;DHT22;16167;48.768;14.984;2024-01-30T04:40:47;-0.50;99.90
29093;DHT22;16167;48.768;14.984;2024-01-30T04:43:15;-0.50;99.90
29093;DHT22;16167;48.768;14.984;2024-01-30T04:45:43;-0.50;99.90
29093;DHT22;16167;48.768;14.984;2024-01-30T04:48:12;-0.50;99.90
29093;DHT22;16167;48.768;14.984;2024-01-30T04:50:40;-0.50;99.90
29093;DHT22;16167;48.768;14.984;2024-01-30T04:53:08;-0.50;99.90
29093;DHT22;16167;48.768;14.984;2024-01-30T04:55:36;-0.60;99.90
29093;DHT22;16167;48.768;14.984;2024-01-30T04:58:05;-0.60;99.90
29093;DHT22;16167;48.768;14.984;2024-01-30T05:00:33;-0.60;99.90
29093;DHT22;16167;48.768;14.984;2024-01-30T05:03:02;-0.50;99.90
29093;DHT22;16167;48.768;14.984;2024-01-30T05:05:30;-0.50;99.90
29093;DHT22;16167;48.768;14.984;2024-01-30T05:07:58;-0.50;99.90
29093;DHT22;16167;48.768;14.984;2024-01-30T05:10:26;-0.50;99.90
29093;DHT22;16167;48.768;14.984;2024-01-30T05:12:55;-0.50;99.90
29093;DHT22;16167;48.768;14.984;2024-01-30T05:15:24;-0.50;99.90
29093;DHT22;16167;48.768;14.984;2024-01-30T05:17:52;-0.50;99.90
29093;DHT22;16167;48.768;14.984;2024-01-30T05:20:20;-0.50;99.90
29093;DHT22;16167;48.768;14.984;2024-01-30T05:22:48;-0.50;99.90
29093;DHT22;16167;48.768;14.984;2024-01-30T05:25:16;-0.50;99.90
29093;DHT22;16167;48.768;14.984;2024-01-30T05:27:44;-0.50;99.90
29093;DHT22;16167;48.768;14.984;2024-01-30T05:30:13;-0.50;99.90
29093;DHT22;16167;48.768;14.984;2024-01-30T05:32:42;-0.60;99.90
29093;DHT22;16167;48.768;14.984;2024-01-30T05:35:11;-0.60;99.90
29093;DHT22;16167;48.768;14.984;2024-01-30T05:37:39;-0.50;99.90
29093;DHT22;16167;48.768;14.984;2024-01-30T05:40:07;-0.50;99.90
29093;DHT22;16167;48.768;14.984;2024-01-30T05:42:35;-0.50;99.90
29093;DHT22;16167;48.768;14.984;2024-01-30T05:45:04;-0.60;99.90
29093;DHT22;16167;48.768;14.984;2024-01-30T05:47:32;-0.60;99.90
29093;DHT22;16167;48.768;14.984;2024-01-30T05:50:02;-0.60;99.90
29093;DHT22;16167;48.768;14.984;2024-01-30T05:52:30;-0.60;99.90
29093;DHT22;16167;48.768;14.984;2024-01-30T05:54:58;-0.50;99.90
29093;DHT22;16167;48.768;14.984;2024-01-30T05:57:26;-0.60;99.90
29093;DHT22;16167;48.768;14.984;2024-01-30T05:59:54;-0.50;99.90
29093;DHT22;16167;48.768;14.984;2024-01-30T06:02:22;-0.50;99.90
29093;DHT22;16167;48.768;14.984;2024-01-30T06:04:50;-0.50;99.90
29093;DHT22;16167;48.768;14.984;2024-01-30T06:07:19;-0.60;99.90
29093;DHT22;16167;48.768;14.984;2024-01-30T06:09:48;-0.50;99.90
29093;DHT22;16167;48.768;14.984;2024-01-30T06:12:16;-0.50;99.90
29093;DHT22;16167;48.768;14.984;2024-01-30T06:14:44;-0.60;99.90
29093;DHT22;16167;48.768;14.984;2024-01-30T06:17:13;-0.60;99.90
29093;DHT22;16167;48.768;14.984;2024-01-30T06:19:41;-0.60;99.90
29093;DHT22;16167;48.768;14.984;2024-01-30T06:22:09;-0.60;99.90
29093;DHT22;16167;48.768;14.984;2024-01-30T06:24:39;-0.60;99.90
29093;DHT22;16167;48.768;14.984;2024-01-30T06:27:07;-0.60;99.90
29093;DHT22;16167;48.768;14.984;2024-01-30T06:29:36;-0.70;99.90
29093;DHT22;16167;48.768;14.984;2024-01-30T06:32:04;-0.70;99.90
29093;DHT22;16167;48.768;14.984;2024-01-30T06:34:33;-0.70;99.90
29093;DHT22;16167;48.768;14.984;2024-01-30T06:37:01;-0.70;99.90
29093;DHT22;16167;48.768;14.984;2024-01-30T06:39:29;-0.70;99.60
29093;DHT22;16167;48.768;14.984;2024-01-30T06:41:58;-0.70;99.90
29093;DHT22;16167;48.768;14.984;2024-01-30T06:44:26;-0.70;99.90
29093;DHT22;16167;48.768;14.984;2024-01-30T06:46:58;-0.70;99.90
29093;DHT22;16167;48.768;14.984;2024-01-30T06:49:27;-0.70;99.90
29093;DHT22;16167;48.768;14.984;2024-01-30T06:51:55;-0.70;99.90
29093;DHT22;16167;48.768;14.984;2024-01-30T06:54:23;-0.70;99.90
29093;DHT22;16167;48.768;14.984;2024-01-30T06:56:51;-0.70;99.90
29093;DHT22;16167;48.768;14.984;2024-01-30T06:59:21;-0.70;99.90
29093;DHT22;16167;48.768;14.984;2024-01-30T07:01:49;-0.70;99.90
29093;DHT22;16167;48.768;14.984;2024-01-30T07:04:17;-0.70;99.90
29093;DHT22;16167;48.768;14.984;2024-01-30T07:06:45;-0.70;99.90
29093;DHT22;16167;48.768;14.984;2024-01-30T07:09:13;-0.70;99.90
29093;DHT22;16167;48.768;14.984;2024-01-30T07:11:41;-0.70;99.90
29093;DHT22;16167;48.768;14.984;2024-01-30T07:14:09;-0.70;99.90
29093;DHT22;16167;48.768;14.984;2024-01-30T07:16:38;-0.70;99.90
29093;DHT22;16167;48.768;14.984;2024-01-30T07:19:06;-0.60;99.90
29093;DHT22;16167;48.768;14.984;2024-01-30T07:21:36;-0.60;99.60
29093;DHT22;16167;48.768;14.984;2024-01-30T07:24:05;-0.60;98.70
29093;DHT22;16167;48.768;14.984;2024-01-30T07:26:33;-0.60;99.30
29093;DHT22;16167;48.768;14.984;2024-01-30T07:29:02;-0.60;99.30
29093;DHT22;16167;48.768;14.984;2024-01-30T07:31:30;-0.70;98.80
29093;DHT22;16167;48.768;14.984;2024-01-30T07:34:01;-0.70;98.90
29093;DHT22;16167;48.768;14.984;2024-01-30T07:36:30;-0.70;99.90
29093;DHT22;16167;48.768;14.984;2024-01-30T07:38:58;-0.60;99.40
29093;DHT22;16167;48.768;14.984;2024-01-30T07:41:26;-0.60;98.20
29093;DHT22;16167;48.768;14.984;2024-01-30T07:43:54;-0.60;98.50
29093;DHT22;16167;48.768;14.984;2024-01-30T07:46:22;-0.60;98.90
29093;DHT22;16167;48.768;14.984;2024-01-30T07:48:50;-0.60;98.40
29093;DHT22;16167;48.768;14.984;2024-01-30T07:51:22;-0.60;97.40
29093;DHT22;16167;48.768;14.984;2024-01-30T07:53:50;-0.60;97.80
29093;DHT22;16167;48.768;14.984;2024-01-30T07:56:18;-0.70;98.00
29093;DHT22;16167;48.768;14.984;2024-01-30T07:58:46;-0.60;97.90
29093;DHT22;16167;48.768;14.984;2024-01-30T08:01:14;-0.60;97.70
29093;DHT22;16167;48.768;14.984;2024-01-30T08:03:42;-0.60;97.70
29093;DHT22;16167;48.768;14.984;2024-01-30T08:06:10;-0.60;98.10
29093;DHT22;16167;48.768;14.984;2024-01-30T08:08:40;-0.60;99.20
29093;DHT22;16167;48.768;14.984;2024-01-30T08:11:08;-0.60;99.90
29093;DHT22;16167;48.768;14.984;2024-01-30T08:13:36;-0.60;99.10
29093;DHT22;16167;48.768;14.984;2024-01-30T08:16:05;-0.60;99.20
29093;DHT22;16167;48.768;14.984;2024-01-30T08:18:33;-0.60;98.30
29093;DHT22;16167;48.768;14.984;2024-01-30T08:21:01;-0.50;96.80
29093;DHT22;16167;48.768;14.984;2024-01-30T08:23:29;-0.50;95.50
29093;DHT22;16167;48.768;14.984;2024-01-30T08:25:58;-0.50;96.00
29093;DHT22;16167;48.768;14.984;2024-01-30T08:28:26;-0.50;97.30
29093;DHT22;16167;48.768;14.984;2024-01-30T08:30:55;-0.50;97.70
29093;DHT22;16167;48.768;14.984;2024-01-30T08:33:23;-0.50;97.10
29093;DHT22;16167;48.768;14.984;2024-01-30T08:35:51;-0.50;97.10
29093;DHT22;16167;48.768;14.984;2024-01-30T08:38:19;-0.40;98.00
29093;DHT22;16167;48.768;14.984;2024-01-30T08:40:47;-0.40;98.90
29093;DHT22;16167;48.768;14.984;2024-01-30T08:43:16;-0.40;98.00
29093;DHT22;16167;48.768;14.984;2024-01-30T08:45:44;-0.30;95.10
29093;DHT22;16167;48.768;14.984;2024-01-30T08:48:12;-0.30;94.40
29093;DHT22;16167;48.768;14.984;2024-01-30T08:50:40;-0.30;95.90
29093;DHT22;16167;48.768;14.984;2024-01-30T08:53:08;-0.30;95.10
29093;DHT22;16167;48.768;14.984;2024-01-30T08:55:36;-0.30;95.20
29093;DHT22;16167;48.768;14.984;2024-01-30T08:58:05;-0.20;94.00
29093;DHT22;16167;48.768;14.984;2024-01-30T09:00:35;-0.20;94.00
29093;DHT22;16167;48.768;14.984;2024-01-30T09:03:03;-0.20;93.80
29093;DHT22;16167;48.768;14.984;2024-01-30T09:05:31;-0.20;93.80
29093;DHT22;16167;48.768;14.984;2024-01-30T09:07:59;-0.20;94.00
29093;DHT22;16167;48.768;14.984;2024-01-30T09:10:27;-0.20;93.20
29093;DHT22;16167;48.768;14.984;2024-01-30T09:12:55;-0.20;93.90
29093;DHT22;16167;48.768;14.984;2024-01-30T09:15:23;-0.10;94.60
29093;DHT22;16167;48.768;14.984;2024-01-30T09:17:54;-0.10;93.80
29093;DHT22;16167;48.768;14.984;2024-01-30T09:20:22;-0.10;93.40
29093;DHT22;16167;48.768;14.984;2024-01-30T09:22:50;-0.10;93.20
29093;DHT22;16167;48.768;14.984;2024-01-30T09:25:18;0.00;91.80
29093;DHT22;16167;48.768;14.984;2024-01-30T09:27:46;0.00;93.20
29093;DHT22;16167;48.768;14.984;2024-01-30T09:30:14;0.00;92.20
29093;DHT22;16167;48.768;14.984;2024-01-30T09:32:42;0.00;91.30
29093;DHT22;16167;48.768;14.984;2024-01-30T09:35:12;0.10;92.50
29093;DHT22;16167;48.768;14.984;2024-01-30T09:37:40;0.10;92.90
29093;DHT22;16167;48.768;14.984;2024-01-30T09:40:08;0.10;91.20
29093;DHT22;16167;48.768;14.984;2024-01-30T09:42:37;0.10;91.90
29093;DHT22;16167;48.768;14.984;2024-01-30T09:45:05;0.10;89.40
29093;DHT22;16167;48.768;14.984;2024-01-30T09:47:35;0.10;90.30
29093;DHT22;16167;48.768;14.984;2024-01-30T09:50:06;0.10;88.20
29093;DHT22;16167;48.768;14.984;2024-01-30T09:52:36;0.20;87.20
29093;DHT22;16167;48.768;14.984;2024-01-30T09:55:05;0.20;86.90
29093;DHT22;16167;48.768;14.984;2024-01-30T09:57:33;0.30;87.00
29093;DHT22;16167;48.768;14.984;2024-01-30T10:00:02;0.30;85.60
29093;DHT22;16167;48.768;14.984;2024-01-30T10:02:31;0.30;85.60
29093;DHT22;16167;48.768;14.984;2024-01-30T10:04:59;0.30;84.30
29093;DHT22;16167;48.768;14.984;2024-01-30T10:07:28;0.30;80.00
29093;DHT22;16167;48.768;14.984;2024-01-30T10:09:58;0.40;82.40
29093;DHT22;16167;48.768;14.984;2024-01-30T10:12:26;0.40;82.70
29093;DHT22;16167;48.768;14.984;2024-01-30T10:14:55;0.40;79.80
29093;DHT22;16167;48.768;14.984;2024-01-30T10:17:24;0.40;79.80
29093;DHT22;16167;48.768;14.984;2024-01-30T10:19:59;0.40;79.40
29093;DHT22;16167;48.768;14.984;2024-01-30T10:22:28;0.50;78.00
29093;DHT22;16167;48.768;14.984;2024-01-30T10:24:58;0.50;76.10
29093;DHT22;16167;48.768;14.984;2024-01-30T10:27:31;0.60;74.60
29093;DHT22;16167;48.768;14.984;2024-01-30T10:29:59;0.60;75.40
29093;DHT22;16167;48.768;14.984;2024-01-30T10:32:27;0.60;80.30
29093;DHT22;16167;48.768;14.984;2024-01-30T10:34:55;0.60;77.80
29093;DHT22;16167;48.768;14.984;2024-01-30T10:37:24;0.70;78.40
29093;DHT22;16167;48.768;14.984;2024-01-30T10:39:54;0.80;75.40
29093;DHT22;16167;48.768;14.984;2024-01-30T10:42:25;0.80;69.80
29093;DHT22;16167;48.768;14.984;2024-01-30T10:44:56;0.80;70.20
29093;DHT22;16167;48.768;14.984;2024-01-30T10:47:26;0.90;75.20
29093;DHT22;16167;48.768;14.984;2024-01-30T10:49:54;0.90;70.80
29093;DHT22;16167;48.768;14.984;2024-01-30T10:52:23;0.90;70.70
29093;DHT22;16167;48.768;14.984;2024-01-30T10:54:53;1.00;72.20
29093;DHT22;16167;48.768;14.984;2024-01-30T10:57:22;0.90;67.40
29093;DHT22;16167;48.768;14.984;2024-01-30T10:59:52;0.90;62.90
29093;DHT22;16167;48.768;14.984;2024-01-30T11:02:21;0.90;60.90
29093;DHT22;16167;48.768;14.984;2024-01-30T11:04:54;0.90;57.80
29093;DHT22;16167;48.768;14.984;2024-01-30T11:07:24;0.90;58.00
29093;DHT22;16167;48.768;14.984;2024-01-30T11:09:52;0.90;55.80
29093;DHT22;16167;48.768;14.984;2024-01-30T11:12:24;0.90;59.10
29093;DHT22;16167;48.768;14.984;2024-01-30T11:15:02;0.90;55.80
29093;DHT22;16167;48.768;14.984;2024-01-30T11:17:45;1.00;57.90
29093;DHT22;16167;48.768;14.984;2024-01-30T11:20:14;1.00;59.20
29093;DHT22;16167;48.768;14.984;2024-01-30T11:22:44;1.00;53.20
29093;DHT22;16167;48.768;14.984;2024-01-30T11:25:12;1.10;58.30
29093;DHT22;16167;48.768;14.984;2024-01-30T11:27:41;1.10;59.30
29093;DHT22;16167;48.768;14.984;2024-01-30T11:30:11;1.10;55.00
29093;DHT22;16167;48.768;14.984;2024-01-30T11:32:57;1.10;53.40
29093;DHT22;16167;48.768;14.984;2024-01-30T11:35:25;1.10;54.00
29093;DHT22;16167;48.768;14.984;2024-01-30T11:37:54;1.10;51.70
29093;DHT22;16167;48.768;14.984;2024-01-30T11:40:22;1.00;48.70
29093;DHT22;16167;48.768;14.984;2024-01-30T11:42:52;1.00;57.10
29093;DHT22;16167;48.768;14.984;2024-01-30T11:45:22;1.00;59.30
29093;DHT22;16167;48.768;14.984;2024-01-30T11:47:50;1.10;59.00
29093;DHT22;16167;48.768;14.984;2024-01-30T11:50:18;1.10;58.30
29093;DHT22;16167;48.768;14.984;2024-01-30T11:52:47;1.10;60.00
29093;DHT22;16167;48.768;14.984;2024-01-30T11:55:15;1.20;58.20
29093;DHT22;16167;48.768;14.984;2024-01-30T11:57:44;1.30;53.40
29093;DHT22;16167;48.768;14.984;2024-01-30T12:00:15;1.40;54.30
29093;DHT22;16167;48.768;14.984;2024-01-30T12:02:48;1.50;51.10
29093;DHT22;16167;48.768;14.984;2024-01-30T12:05:18;1.50;46.50
29093;DHT22;16167;48.768;14.984;2024-01-30T12:07:47;1.50;41.60
29093;DHT22;16167;48.768;14.984;2024-01-30T12:10:15;1.60;49.60
29093;DHT22;16167;48.768;14.984;2024-01-30T12:12:45;1.60;47.10
29093;DHT22;16167;48.768;14.984;2024-01-30T12:15:13;1.50;40.30
29093;DHT22;16167;48.768;14.984;2024-01-30T12:17:42;1.40;36.30
29093;DHT22;16167;48.768;14.984;2024-01-30T12:20:12;1.40;46.30
29093;DHT22;16167;48.768;14.984;2024-01-30T12:22:41;1.40;43.20
29093;DHT22;16167;48.768;14.984;2024-01-30T12:25:09;1.30;43.20
29093;DHT22;16167;48.768;14.984;2024-01-30T12:27:38;1.30;47.50
29093;DHT22;16167;48.768;14.984;2024-01-30T12:30:07;1.20;48.60
29093;DHT22;16167;48.768;14.984;2024-01-30T12:32:35;1.20;47.60
29093;DHT22;16167;48.768;14.984;2024-01-30T12:35:04;1.30;53.50
29093;DHT22;16167;48.768;14.984;2024-01-30T12:37:36;1.30;50.40
29093;DHT22;16167;48.768;14.984;2024-01-30T12:40:04;1.30;47.50
29093;DHT22;16167;48.768;14.984;2024-01-30T12:42:33;1.30;48.10
29093;DHT22;16167;48.768;14.984;2024-01-30T12:45:02;1.20;48.60
29093;DHT22;16167;48.768;14.984;2024-01-30T12:47:30;1.20;53.50
29093;DHT22;16167;48.768;14.984;2024-01-30T12:49:58;1.30;51.50
29093;DHT22;16167;48.768;14.984;2024-01-30T12:52:27;1.40;53.10
29093;DHT22;16167;48.768;14.984;2024-01-30T12:54:56;1.40;54.80
29093;DHT22;16167;48.768;14.984;2024-01-30T12:57:25;1.50;58.40
29093;DHT22;16167;48.768;14.984;2024-01-30T12:59:53;1.50;50.60
29093;DHT22;16167;48.768;14.984;2024-01-30T13:02:21;1.50;49.60
29093;DHT22;16167;48.768;14.984;2024-01-30T13:04:49;1.40;49.30
29093;DHT22;16167;48.768;14.984;2024-01-30T13:07:17;1.40;47.70
29093;DHT22;16167;48.768;14.984;2024-01-30T13:09:47;1.40;45.20
29093;DHT22;16167;48.768;14.984;2024-01-30T13:12:17;1.30;48.30
29093;DHT22;16167;48.768;14.984;2024-01-30T13:14:45;1.30;53.60
29093;DHT22;16167;48.768;14.984;2024-01-30T13:17:13;1.30;53.40
29093;DHT22;16167;48.768;14.984;2024-01-30T13:19:41;1.30;53.30
29093;DHT22;16167;48.768;14.984;2024-01-30T13:22:09;1.30;54.30
29093;DHT22;16167;48.768;14.984;2024-01-30T13:24:37;1.30;52.90
29093;DHT22;16167;48.768;14.984;2024-01-30T13:27:05;1.40;52.00
29093;DHT22;16167;48.768;14.984;2024-01-30T13:29:35;1.30;50.80
29093;DHT22;16167;48.768;14.984;2024-01-30T13:32:03;1.30;52.00
29093;DHT22;16167;48.768;14.984;2024-01-30T13:34:31;1.30;54.30
29093;DHT22;16167;48.768;14.984;2024-01-30T13:37:00;1.20;53.80
29093;DHT22;16167;48.768;14.984;2024-01-30T13:39:28;1.20;55.60
29093;DHT22;16167;48.768;14.984;2024-01-30T13:42:02;1.10;56.50
29093;DHT22;16167;48.768;14.984;2024-01-30T13:44:30;1.10;55.50
29093;DHT22;16167;48.768;14.984;2024-01-30T13:47:00;1.10;55.10
29093;DHT22;16167;48.768;14.984;2024-01-30T13:49:28;1.10;56.30
29093;DHT22;16167;48.768;14.984;2024-01-30T13:51:57;1.10;58.90
29093;DHT22;16167;48.768;14.984;2024-01-30T13:54:26;1.10;55.40
29093;DHT22;16167;48.768;14.984;2024-01-30T13:56:54;1.00;58.00
29093;DHT22;16167;48.768;14.984;2024-01-30T13:59:22;1.10;62.50
29093;DHT22;16167;48.768;14.984;2024-01-30T14:01:52;1.10;61.80
29093;DHT22;16167;48.768;14.984;2024-01-30T14:04:22;1.00;59.10
29093;DHT22;16167;48.768;14.984;2024-01-30T14:06:50;1.00;61.40
29093;DHT22;16167;48.768;14.984;2024-01-30T14:09:31;1.10;57.30
29093;DHT22;16167;48.768;14.984;2024-01-30T14:11:59;1.00;55.30
29093;DHT22;16167;48.768;14.984;2024-01-30T14:14:27;0.90;63.50
29093;DHT22;16167;48.768;14.984;2024-01-30T14:16:55;0.80;61.60
29093;DHT22;16167;48.768;14.984;2024-01-30T14:19:25;0.90;65.10
29093;DHT22;16167;48.768;14.984;2024-01-30T14:21:54;0.80;64.70
29093;DHT22;16167;48.768;14.984;2024-01-30T14:24:22;0.80;65.80
29093;DHT22;16167;48.768;14.984;2024-01-30T14:26:50;0.70;64.80
29093;DHT22;16167;48.768;14.984;2024-01-30T14:29:18;0.70;68.10
29093;DHT22;16167;48.768;14.984;2024-01-30T14:31:46;0.70;67.10
29093;DHT22;16167;48.768;14.984;2024-01-30T14:34:14;0.70;68.60
29093;DHT22;16167;48.768;14.984;2024-01-30T14:36:44;0.60;69.40
29093;DHT22;16167;48.768;14.984;2024-01-30T14:39:12;0.60;71.50
29093;DHT22;16167;48.768;14.984;2024-01-30T14:41:40;0.60;69.70
29093;DHT22;16167;48.768;14.984;2024-01-30T14:44:08;0.50;73.40
29093;DHT22;16167;48.768;14.984;2024-01-30T14:46:36;0.50;72.70
29093;DHT22;16167;48.768;14.984;2024-01-30T14:49:04;0.40;76.80
29093;DHT22;16167;48.768;14.984;2024-01-30T14:51:34;0.40;77.40
29093;DHT22;16167;48.768;14.984;2024-01-30T14:54:04;0.40;79.30
29093;DHT22;16167;48.768;14.984;2024-01-30T14:56:32;0.40;80.20
29093;DHT22;16167;48.768;14.984;2024-01-30T14:59:00;0.40;81.60
29093;DHT22;16167;48.768;14.984;2024-01-30T15:01:29;0.40;80.30
29093;DHT22;16167;48.768;14.984;2024-01-30T15:03:57;0.30;80.70
29093;DHT22;16167;48.768;14.984;2024-01-30T15:06:25;0.30;83.00
29093;DHT22;16167;48.768;14.984;2024-01-30T15:08:54;0.30;82.30
29093;DHT22;16167;48.768;14.984;2024-01-30T15:11:23;0.30;83.80
29093;DHT22;16167;48.768;14.984;2024-01-30T15:13:52;0.30;84.50
29093;DHT22;16167;48.768;14.984;2024-01-30T15:16:20;0.20;85.80
29093;DHT22;16167;48.768;14.984;2024-01-30T15:18:48;0.20;88.10
29093;DHT22;16167;48.768;14.984;2024-01-30T15:21:16;0.20;89.20
29093;DHT22;16167;48.768;14.984;2024-01-30T15:23:47;0.20;86.70
29093;DHT22;16167;48.768;14.984;2024-01-30T15:26:15;0.20;86.70
29093;DHT22;16167;48.768;14.984;2024-01-30T15:28:44;0.20;86.20
29093;DHT22;16167;48.768;14.984;2024-01-30T15:31:12;0.20;86.80